Дата Пункты Температура Давл., мм. Влажн., % Ветер Погодные явления
Воздуха Воды Направл. Скорость
25.11.17 08:00 Одесса 6.0 8.0 766 80 Ю 5 08 часов
25.11.17 05:00 Одесса 6.0 8.0 766 78 Ю 4 05 часов
25.11.17 02:00 Одесса 5.0 8.0 766 73 Ю-В 6 02 часа
24.11.17 11:00 Одесса 4.0 8.0 767 82 Ю-В 6 23 часа
24.11.17 08:00 Одесса 4.0 8.0 766 77 Ю-В 4 20 часов
24.11.17 05:00 Одесса 4.0 8.0 766 75 Ю-В 5 17 часов
24.11.17 02:00 Одесса 4.0 8.0 765 74 В 3 14 часов
24.11.17 11:00 Одесса 5.0 7.0 765 71 Ю-В 4 11 часов
24.11.17 08:00 Одесса -1.0 7.0 764 94 С-В 1 08 часов
24.11.17 05:00 Одесса -2.0 7.0 764 94 С-З 1 05 часов
24.11.17 02:00 Одесса -2.0 7.0 764 90 С-З 1 02 часа
23.11.17 11:00 Одесса -1.0 7.0 764 85 С 0 23 часа
23.11.17 08:00 Одесса 1.0 7.0 764 77 С-В 2 20 часов
23.11.17 05:00 Одесса 1.0 7.0 764 77 С-З 1 17 часов
23.11.17 02:00 Одесса 4.0 7.0 764 71 С 2 14 часов
23.11.17 11:00 Одесса 3.0 7.0 764 78 С 2 11 часов
23.11.17 08:00 Одесса -1.0 7.0 763 92 С-З 1 08 часов
23.11.17 05:00 Одесса -1.0 7.0 762 88 С-З 1 05 часов
23.11.17 02:00 Одесса -1.0 7.0 761 86 С-З 2 02 часа
22.11.17 11:00 Одесса 1.0 7.0 761 81 С-З 2 23 часа
Количество строк
1 2 3 4 5 6 7 8 9 10
Page 8 of 305